Time;durP1;ratioP1;P1;durP2;ratioP2;P2;SDS_P1;SDS_P2;PMS_P1;PMS_P2;Temp;Humidity;BMP_temperature;BMP_pressure;BME280_temperature;BME280_humidity;BME280_pressure;Samples;Min_cycle;Max_cycle;Signal;HPM_P1;HPM_P2
2022/02/12 00:00:39;;;;;;;12.70;9.10;;;;;;;-0.24;77.79;97059.09;5093362;28;20374;-62
2022/02/12 00:03:05;;;;;;;15.10;9.77;;;;;;;-0.32;78.07;97059.88;5093276;28;20031;-62
2022/02/12 00:05:31;;;;;;;15.07;10.00;;;;;;;-0.29;78.29;97064.19;5093274;28;20020;-62
2022/02/12 00:07:58;;;;;;;14.63;9.25;;;;;;;-0.29;79.00;97065.06;5093241;28;20016;-62
2022/02/12 00:10:29;;;;;;;17.40;10.18;;;;;;;-0.23;79.42;97068.53;5075078;28;20415;-62
2022/02/12 00:12:55;;;;;;;17.45;11.27;;;;;;;-0.21;80.84;97066.84;5093187;28;20121;-62
2022/02/12 00:15:24;;;;;;;14.60;9.07;;;;;;;-0.08;81.34;97070.44;5093105;28;20016;-63
2022/02/12 00:17:49;;;;;;;15.25;9.60;;;;;;;0.03;80.28;97068.84;5092802;28;20032;-62
2022/02/12 00:20:16;;;;;;;17.88;9.32;;;;;;;0.11;79.78;97074.09;5093069;28;20036;-62
2022/02/12 00:22:42;;;;;;;15.73;9.45;;;;;;;0.17;78.84;97069.03;5093023;28;20035;-62
2022/02/12 00:25:14;;;;;;;13.65;10.00;;;;;;;0.17;79.38;97063.88;5093000;28;20032;-62
2022/02/12 00:27:40;;;;;;;15.07;9.20;;;;;;;0.25;78.86;97072.56;5093139;28;20032;-62
2022/02/12 00:30:06;;;;;;;14.90;9.15;;;;;;;0.28;77.80;97070.88;5092963;28;20409;-62
2022/02/12 00:32:32;;;;;;;13.52;8.40;;;;;;;0.22;76.96;97069.97;5092943;28;20107;-62
2022/02/12 00:34:58;;;;;;;13.38;8.35;;;;;;;0.17;77.84;97063.00;5092936;28;20131;-62
2022/02/12 00:37:25;;;;;;;12.73;8.88;;;;;;;0.23;77.69;97074.25;5092977;28;20020;-62
2022/02/12 00:39:51;;;;;;;14.15;8.73;;;;;;;0.29;78.00;97065.75;5096278;28;20034;-62
2022/02/12 00:42:18;;;;;;;13.20;8.02;;;;;;;0.35;77.84;97067.50;5096740;28;20111;-62
2022/02/12 00:44:44;;;;;;;12.23;7.70;;;;;;;0.39;76.75;97060.69;5096856;28;20024;-62
2022/02/12 00:47:09;;;;;;;10.73;6.57;;;;;;;0.18;77.12;97064.75;5096781;28;20016;-63
2022/02/12 00:49:36;;;;;;;12.40;6.65;;;;;;;0.17;77.42;97063.00;5096718;28;20024;-63
2022/02/12 00:52:02;;;;;;;13.02;7.90;;;;;;;0.12;77.77;97065.56;5096600;28;20393;-63
2022/02/12 00:54:28;;;;;;;10.00;6.03;;;;;;;0.15;78.11;97067.31;5096554;28;20021;-63
2022/02/12 00:56:54;;;;;;;12.85;6.30;;;;;;;0.06;78.54;97062.91;5096502;28;20066;-63
2022/02/12 00:59:19;;;;;;;9.27;6.07;;;;;;;0.12;78.22;97063.00;5096536;28;20024;-63
2022/02/12 01:01:45;;;;;;;12.75;6.25;;;;;;;0.12;77.34;97066.41;5096451;28;20035;-63
2022/02/12 01:04:10;;;;;;;12.02;6.65;;;;;;;0.11;77.31;97064.69;5096451;28;20032;-63
2022/02/12 01:06:36;;;;;;;9.65;6.20;;;;;;;0.09;76.86;97065.53;5096446;28;20028;-63
2022/02/12 01:09:02;;;;;;;7.63;5.82;;;;;;;0.10;77.27;97062.97;5096267;28;20031;-63
2022/02/12 01:11:28;;;;;;;9.23;5.57;;;;;;;0.05;77.07;97062.03;5096131;28;20024;-63
2022/02/12 01:13:54;;;;;;;11.15;5.18;;;;;;;-0.05;77.22;97048.22;5096473;28;20039;-62
2022/02/12 01:16:19;;;;;;;11.02;5.55;;;;;;;0.00;77.42;97048.28;5096307;28;20020;-63
2022/02/12 01:18:45;;;;;;;11.70;6.68;;;;;;;-0.11;77.57;97048.13;5095914;28;20048;-62
2022/02/12 01:21:11;;;;;;;10.73;6.60;;;;;;;-0.19;78.71;97052.28;5096019;28;20382;-63
2022/02/12 01:23:36;;;;;;;14.05;8.38;;;;;;;-0.08;79.31;97055.88;5095880;28;20031;-63
2022/02/12 01:26:04;;;;;;;10.57;6.75;;;;;;;-0.09;79.81;97056.72;5096021;28;20020;-63
2022/02/12 01:28:29;;;;;;;10.57;7.05;;;;;;;-0.11;79.20;97049.81;5095877;28;20026;-63
2022/02/12 01:30:55;;;;;;;9.13;6.57;;;;;;;-0.11;79.24;97048.13;5095924;28;20016;-63
2022/02/12 01:33:21;;;;;;;11.45;6.70;;;;;;;-0.16;78.81;97047.19;5095789;28;20485;-63
2022/02/12 01:35:47;;;;;;;13.35;7.50;;;;;;;-0.08;79.47;97052.44;5095745;28;20032;-63
2022/02/12 01:38:13;;;;;;;11.38;7.50;;;;;;;0.01;78.80;97052.56;5095895;28;20505;-63
2022/02/12 01:40:38;;;;;;;12.13;7.13;;;;;;;0.07;78.19;97059.47;5095919;28;20362;-62
2022/02/12 01:43:07;;;;;;;10.80;6.25;;;;;;;0.10;77.41;97051.81;5095632;28;20020;-63
2022/02/12 01:45:35;;;;;;;11.43;6.60;;;;;;;0.11;77.13;97063.81;5095687;28;20075;-62
2022/02/12 01:48:01;;;;;;;13.07;7.07;;;;;;;0.07;77.26;97062.06;5095541;28;20027;-63
2022/02/12 01:50:27;;;;;;;11.15;6.07;;;;;;;0.07;77.26;97049.19;5095499;28;20095;-63
2022/02/12 01:52:53;;;;;;;11.02;6.40;;;;;;;0.02;77.56;97051.69;5095378;28;20115;-63
2022/02/12 01:55:20;;;;;;;11.52;6.20;;;;;;;-0.05;78.57;97057.63;5095440;28;20055;-62
2022/02/12 01:57:45;;;;;;;11.63;6.97;;;;;;;-0.06;78.75;97059.31;5095363;28;20425;-62
2022/02/12 02:00:14;;;;;;;12.27;8.35;;;;;;;-0.08;78.69;97060.16;5095363;28;20028;-63
2022/02/12 02:02:40;;;;;;;13.07;8.27;;;;;;;-0.04;78.97;97062.78;5095172;28;20016;-63
2022/02/12 02:05:10;;;;;;;16.10;8.93;;;;;;;0.01;78.10;97070.56;5095248;28;20024;-63
2022/02/12 02:07:40;;;;;;;13.60;7.10;;;;;;;0.04;78.15;97072.31;5095218;28;20065;-63
2022/02/12 02:10:07;;;;;;;9.50;6.10;;;;;;;-0.04;78.29;97070.50;5095083;28;20354;-62
2022/02/12 02:12:33;;;;;;;13.27;7.53;;;;;;;-0.05;78.14;97078.19;5095111;28;20050;-63
2022/02/12 02:14:59;;;;;;;11.63;6.72;;;;;;;-0.06;79.06;97079.91;5095158;28;20023;-62
2022/02/12 02:17:25;;;;;;;13.80;6.53;;;;;;;-0.02;79.20;97089.41;5095103;28;20359;-63
2022/02/12 02:19:51;;;;;;;11.68;6.43;;;;;;;-0.01;78.93;97083.41;5094783;28;20105;-63
2022/02/12 02:22:20;;;;;;;8.98;6.82;;;;;;;-0.04;78.46;97085.06;5094788;28;20028;-63
2022/02/12 02:24:46;;;;;;;13.57;9.23;;;;;;;-0.02;78.16;97080.81;5094804;28;20016;-63
2022/02/12 02:27:15;;;;;;;10.93;6.32;;;;;;;-0.06;77.76;97081.63;5094839;28;20031;-63
2022/02/12 02:29:42;;;;;;;15.00;7.30;;;;;;;-0.21;78.33;97083.13;5094765;28;20023;-63
2022/02/12 02:32:09;;;;;;;12.98;6.90;;;;;;;-0.17;78.36;97087.50;5094745;28;20031;-63
2022/02/12 02:34:35;;;;;;;9.18;6.07;;;;;;;-0.27;79.07;97096.78;5094575;28;20110;-63
2022/02/12 02:37:01;;;;;;;8.75;6.32;;;;;;;-0.32;79.28;97093.28;5094606;28;20021;-62
2022/02/12 02:39:27;;;;;;;12.48;6.90;;;;;;;-0.34;79.27;97094.97;5094633;28;20373;-62
2022/02/12 02:41:52;;;;;;;10.95;7.00;;;;;;;-0.32;79.72;97092.41;5094376;28;20012;-63
2022/02/12 02:44:18;;;;;;;9.32;6.05;;;;;;;-0.33;79.78;97096.69;5094487;28;20466;-63
2022/02/12 02:46:44;;;;;;;12.43;5.72;;;;;;;-0.30;79.66;97098.47;5094426;28;20090;-63
2022/02/12 02:49:09;;;;;;;11.73;6.32;;;;;;;-0.29;79.58;97101.06;5094512;28;20020;-63
2022/02/12 02:57:03;;;;;;;8.18;5.68;;;;;;;-0.23;79.42;97107.09;5094350;28;20131;-63
2022/02/12 02:59:29;;;;;;;10.45;5.97;;;;;;;-0.11;79.23;97115.00;5094337;28;20085;-63
2022/02/12 03:01:55;;;;;;;10.25;5.85;;;;;;;-0.07;78.85;97119.34;5093626;28;20020;-63
2022/02/12 03:04:21;;;;;;;9.32;6.20;;;;;;;-0.05;78.19;97117.66;5094011;28;20489;-63
2022/02/12 03:06:48;;;;;;;12.77;7.68;;;;;;;-0.07;78.35;97116.78;5093990;28;20024;-63
2022/02/12 03:09:14;;;;;;;9.63;6.15;;;;;;;-0.11;78.67;97114.13;5094049;28;20050;-63
2022/02/12 03:11:39;;;;;;;9.23;6.03;;;;;;;-0.17;77.95;97118.38;5094004;28;20020;-63
2022/02/12 03:14:05;;;;;;;9.50;5.35;;;;;;;-0.31;78.86;97114.72;5093893;28;20028;-63
2022/02/12 03:16:31;;;;;;;10.40;6.22;;;;;;;-0.37;79.78;97118.06;5093866;28;20053;-63
2022/02/12 03:18:57;;;;;;;10.88;5.93;;;;;;;-0.34;79.93;97122.38;5093391;28;20131;-63
2022/02/12 03:21:23;;;;;;;8.60;6.10;;;;;;;-0.26;79.68;97120.78;5093873;28;20095;-63
2022/02/12 03:23:49;;;;;;;13.23;6.35;;;;;;;-0.25;79.43;97114.81;5093809;28;20024;-63
2022/02/12 03:26:15;;;;;;;11.73;7.28;;;;;;;-0.19;79.35;97124.31;5093730;28;20028;-63
2022/02/12 03:28:41;;;;;;;9.25;6.60;;;;;;;-0.12;79.81;97123.53;5093543;28;20024;-63
2022/02/12 03:31:07;;;;;;;11.25;6.05;;;;;;;-0.10;78.67;97123.56;5093792;28;20095;-63
2022/02/12 03:33:32;;;;;;;11.00;5.75;;;;;;;-0.08;78.95;97127.91;5093573;28;20020;-63
2022/02/12 03:35:58;;;;;;;12.95;6.45;;;;;;;-0.09;78.50;97125.31;5093554;28;20051;-63
2022/02/12 03:38:27;;;;;;;10.45;5.93;;;;;;;-0.07;77.92;97134.78;5093436;28;20063;-63
2022/02/12 03:41:02;;;;;;;8.98;6.15;;;;;;;-0.05;78.11;97137.38;5093495;28;20027;-63
2022/02/12 03:43:34;;;;;;;12.45;5.78;;;;;;;-0.06;78.36;97131.34;5093375;28;20481;-63
2022/02/12 03:46:00;;;;;;;8.95;5.18;;;;;;;-0.10;78.38;97139.88;5093382;28;20547;-63
2022/02/12 03:48:27;;;;;;;7.78;5.80;;;;;;;-0.15;78.80;97142.38;5093360;28;20016;-63
2022/02/12 03:50:54;;;;;;;9.52;6.07;;;;;;;-0.09;79.55;97146.75;5093341;28;20020;-63
2022/02/12 03:53:21;;;;;;;11.32;6.50;;;;;;;-0.13;79.23;97143.28;5093283;28;20013;-63
2022/02/12 03:55:47;;;;;;;10.18;6.22;;;;;;;-0.07;79.14;97144.19;5093325;28;20035;-63
2022/02/12 03:58:14;;;;;;;10.38;6.22;;;;;;;-0.09;79.51;97138.19;5093296;28;20028;-63
2022/02/12 04:00:42;;;;;;;7.78;5.50;;;;;;;-0.03;79.14;97146.84;5093351;28;20381;-63
2022/02/12 04:03:08;;;;;;;6.95;4.78;;;;;;;0.01;78.73;97147.75;5093199;28;20473;-63
2022/02/12 04:05:34;;;;;;;9.15;5.50;;;;;;;0.05;79.22;97153.78;5093238;28;20054;-63
2022/02/12 04:08:00;;;;;;;7.85;5.55;;;;;;;0.09;79.19;97151.28;5093141;28;20021;-63
2022/02/12 04:10:26;;;;;;;10.90;5.80;;;;;;;0.07;79.29;97153.00;5093132;28;20027;-63
2022/02/12 04:12:52;;;;;;;8.73;5.22;;;;;;;0.11;80.19;97147.03;5093149;28;20098;-63
2022/02/12 04:15:18;;;;;;;8.45;4.63;;;;;;;0.28;80.66;97158.38;5079115;28;20026;-63
2022/02/12 04:17:44;;;;;;;9.38;4.13;;;;;;;0.40;80.12;97157.66;5097279;28;20024;-63
2022/02/12 04:20:13;;;;;;;7.65;3.90;;;;;;;0.58;79.36;97163.06;5057072;28;20113;-63
2022/02/12 04:22:41;;;;;;;18.25;3.55;;;;;;;1.04;75.91;97154.09;5055756;28;20025;-63
2022/02/12 04:25:09;;;;;;;6.53;3.28;;;;;;;1.36;74.87;97161.22;5056855;28;20036;-63
2022/02/12 04:27:35;;;;;;;6.60;3.53;;;;;;;1.37;73.69;97154.38;5056819;28;20463;-63
2022/02/12 04:30:02;;;;;;;4.85;2.95;;;;;;;1.40;74.29;97164.72;5056760;28;20085;-63
2022/02/12 04:32:27;;;;;;;5.60;3.72;;;;;;;1.64;74.48;97163.19;5056800;28;20025;-63
2022/02/12 04:34:54;;;;;;;7.05;3.25;;;;;;;1.88;72.02;97167.66;5056739;28;20100;-63
2022/02/12 04:37:22;;;;;;;21.65;7.75;;;;;;;2.16;70.99;97173.84;5056636;28;20046;-63
2022/02/12 04:39:47;;;;;;;12.35;5.45;;;;;;;2.42;70.16;97165.34;5056539;28;20013;-63
2022/02/12 04:42:14;;;;;;;8.65;4.18;;;;;;;2.76;68.75;97181.88;5055240;28;20047;-63
2022/02/12 04:44:44;;;;;;;6.70;3.00;;;;;;;3.22;66.85;97169.06;5056676;28;20021;-63
2022/02/12 04:47:09;;;;;;;3.58;1.85;;;;;;;3.45;65.19;97169.06;5056646;28;20043;-63
2022/02/12 04:49:37;;;;;;;7.63;2.42;;;;;;;3.74;63.67;97173.41;5056439;28;20467;-63
2022/02/12 04:52:04;;;;;;;6.55;3.15;;;;;;;4.08;62.58;97174.19;5056444;28;20513;-63
2022/02/12 04:54:29;;;;;;;7.45;2.55;;;;;;;4.20;62.12;97178.47;5056444;28;20029;-63
2022/02/12 04:56:56;;;;;;;4.80;2.38;;;;;;;4.61;60.92;97181.81;5056350;28;20036;-63
2022/02/12 04:59:22;;;;;;;6.97;2.92;;;;;;;4.93;59.91;97178.22;5056292;28;20021;-63
2022/02/12 05:01:50;;;;;;;5.22;2.65;;;;;;;5.15;59.87;97183.28;5056108;28;20091;-63
2022/02/12 05:04:17;;;;;;;7.43;2.92;;;;;;;5.38;58.48;97184.88;5056251;28;20032;-63
2022/02/12 05:06:42;;;;;;;6.38;2.40;;;;;;;5.51;59.01;97188.25;5056163;28;20025;-64
2022/02/12 05:09:08;;;;;;;6.55;2.88;;;;;;;5.73;57.33;97190.66;5056015;28;20116;-63
2022/02/12 05:11:33;;;;;;;5.60;2.47;;;;;;;5.90;56.95;97188.78;5056085;28;20075;-63
2022/02/12 05:13:59;;;;;;;6.47;2.67;;;;;;;6.11;55.98;97194.69;5055962;28;20387;-63
2022/02/12 05:16:25;;;;;;;7.25;2.97;;;;;;;6.15;56.23;97191.19;5055998;28;20063;-63
2022/02/12 05:18:50;;;;;;;7.00;2.58;;;;;;;6.29;55.52;97200.59;5074199;28;20097;-63
2022/02/12 05:21:16;;;;;;;4.18;2.92;;;;;;;6.42;55.09;97209.13;5096233;28;20104;-63
2022/02/12 05:23:44;;;;;;;8.30;2.63;;;;;;;6.56;55.15;97216.75;5095924;28;20474;-63
2022/02/12 05:26:10;;;;;;;8.23;3.05;;;;;;;6.63;54.91;97214.94;5095728;28;20070;-63
2022/02/12 05:28:36;;;;;;;9.35;2.72;;;;;;;6.65;55.09;97221.84;5095989;28;20040;-63
2022/02/12 05:31:01;;;;;;;4.30;2.75;;;;;;;6.66;54.84;97222.72;5095927;28;20469;-62
2022/02/12 05:33:27;;;;;;;5.75;2.28;;;;;;;6.74;54.79;97227.84;5095889;28;20024;-63
2022/02/12 05:35:53;;;;;;;6.30;2.78;;;;;;;6.76;54.75;97221.72;5095741;28;20039;-62
2022/02/12 05:38:18;;;;;;;9.68;2.70;;;;;;;6.92;54.37;97235.41;5095798;28;20020;-62
2022/02/12 05:40:44;;;;;;;3.58;2.47;;;;;;;7.03;54.32;97239.63;5095720;28;20070;-63
2022/02/12 05:43:09;;;;;;;6.82;2.63;;;;;;;7.13;53.91;97238.63;5095635;28;20572;-62
2022/02/12 05:45:35;;;;;;;6.45;2.95;;;;;;;7.30;53.24;97241.00;5095757;28;20438;-62
2022/02/12 05:48:01;;;;;;;5.90;2.67;;;;;;;7.38;53.47;97246.13;5095602;28;20024;-62
2022/02/12 05:50:29;;;;;;;6.00;2.88;;;;;;;7.49;52.97;97240.72;5095631;28;20063;-63
2022/02/12 05:52:55;;;;;;;8.48;3.35;;;;;;;7.61;52.97;97244.06;5095510;28;20378;-61
2022/02/12 05:55:21;;;;;;;6.22;2.85;;;;;;;7.74;52.68;97245.59;5095601;28;20027;-62
2022/02/12 05:57:46;;;;;;;11.75;2.80;;;;;;;7.96;52.50;97260.88;5095479;28;20032;-63
2022/02/12 06:00:13;;;;;;;8.65;3.25;;;;;;;8.50;50.89;97253.03;5095406;28;20115;-63
2022/02/12 06:02:38;;;;;;;6.13;2.60;;;;;;;9.07;49.95;97261.53;5095102;28;20385;-63
2022/02/12 06:05:05;;;;;;;7.22;2.55;;;;;;;9.48;48.50;97264.16;5095258;28;20026;-63
2022/02/12 06:07:31;;;;;;;6.65;3.47;;;;;;;9.86;47.38;97259.81;5095138;28;20020;-62
2022/02/12 06:09:56;;;;;;;6.95;2.88;;;;;;;10.24;46.74;97272.84;5095184;28;20028;-63
2022/02/12 06:12:22;;;;;;;5.47;2.83;;;;;;;10.64;45.40;97270.13;5095244;28;20376;-63
2022/02/12 06:14:48;;;;;;;2.55;2.15;;;;;;;10.95;44.40;97276.28;5076877;28;20020;-63
2022/02/12 06:17:13;;;;;;;5.80;2.75;;;;;;;11.22;43.88;97273.78;5095005;28;20020;-62
2022/02/12 06:19:39;;;;;;;9.40;2.83;;;;;;;11.64;43.34;97277.78;5094882;28;20105;-63
2022/02/12 06:22:04;;;;;;;7.03;3.08;;;;;;;12.25;42.31;97275.91;5094905;28;20343;-63
2022/02/12 06:24:30;;;;;;;10.88;2.75;;;;;;;12.83;40.54;97281.88;5076947;28;20099;-63
2022/02/12 06:26:57;;;;;;;7.57;2.83;;;;;;;13.10;40.14;97284.41;5094816;28;20035;-63
2022/02/12 06:29:26;;;;;;;4.57;2.58;;;;;;;13.53;39.02;97292.50;5094928;28;20024;-63
2022/02/12 06:31:52;;;;;;;4.75;2.75;;;;;;;13.80;38.75;97296.75;5094917;28;20081;-63
2022/02/12 06:34:18;;;;;;;9.80;3.15;;;;;;;14.17;38.04;97294.44;5094716;28;20024;-64
2022/02/12 06:36:44;;;;;;;5.75;2.85;;;;;;;14.69;37.53;97293.19;5093806;28;20382;-63
2022/02/12 06:39:10;;;;;;;8.75;3.03;;;;;;;15.13;35.74;97295.69;5094524;28;20020;-62
2022/02/12 06:41:36;;;;;;;7.20;2.80;;;;;;;15.28;35.41;97304.69;5094576;28;20020;-63
2022/02/12 06:44:02;;;;;;;6.88;3.03;;;;;;;15.39;34.87;97309.44;5094248;28;20020;-64
2022/02/12 06:46:28;;;;;;;5.30;2.78;;;;;;;15.51;35.82;97305.38;5094447;28;20021;-64
2022/02/12 06:48:53;;;;;;;8.80;3.78;;;;;;;15.60;35.54;97311.19;5094518;28;20054;-63
2022/02/12 06:51:19;;;;;;;6.07;2.72;;;;;;;15.88;34.45;97315.16;5094412;28;20027;-63
2022/02/12 06:53:45;;;;;;;5.15;2.50;;;;;;;16.47;34.04;97324.72;5094348;28;20034;-63
2022/02/12 06:56:11;;;;;;;5.50;3.15;;;;;;;16.45;33.71;97319.50;5076045;28;20416;-62
2022/02/12 06:58:36;;;;;;;5.32;3.00;;;;;;;16.24;34.63;97326.69;5094343;28;20027;-62
2022/02/12 07:01:03;;;;;;;7.68;2.92;;;;;;;16.35;33.86;97323.53;5094219;28;20055;-63
2022/02/12 07:03:28;;;;;;;7.00;2.90;;;;;;;16.17;34.44;97320.88;5094127;28;20024;-63
2022/02/12 07:05:54;;;;;;;5.72;3.28;;;;;;;16.54;34.04;97328.75;5094057;28;20501;-63
2022/02/12 07:08:20;;;;;;;8.73;3.60;;;;;;;16.92;33.20;97320.69;5093963;28;20601;-63
2022/02/12 07:10:46;;;;;;;5.90;3.17;;;;;;;17.60;32.61;97327.78;5093688;28;20027;-64
2022/02/12 07:13:13;;;;;;;7.13;3.10;;;;;;;18.17;31.42;97321.19;5093985;28;20072;-65
2022/02/12 07:15:40;;;;;;;8.05;3.03;;;;;;;17.65;32.04;97333.69;5093938;28;20048;-63
2022/02/12 07:18:06;;;;;;;7.68;3.33;;;;;;;17.60;31.94;97333.94;5093416;28;20048;-64
2022/02/12 07:20:34;;;;;;;9.77;3.58;;;;;;;17.55;32.47;97328.91;5093799;28;20474;-61
2022/02/12 07:23:00;;;;;;;12.15;3.53;;;;;;;18.21;31.71;97324.53;5093726;28;20115;-63
2022/02/12 07:25:28;;;;;;;8.90;3.85;;;;;;;18.52;31.13;97333.34;5093916;28;20075;-63
2022/02/12 07:27:57;;;;;;;10.68;3.70;;;;;;;17.93;31.95;97343.63;5093769;28;20465;-63
2022/02/12 07:30:24;;;;;;;8.30;3.75;;;;;;;17.74;32.29;97343.78;5093631;28;20102;-63
2022/02/12 07:32:51;;;;;;;9.90;3.95;;;;;;;18.08;32.50;97342.84;5093700;28;20032;-62
2022/02/12 07:35:18;;;;;;;8.88;3.97;;;;;;;18.50;31.61;97352.00;5093439;28;20027;-64
2022/02/12 07:37:46;;;;;;;7.05;3.67;;;;;;;18.89;30.76;97339.16;5093554;28;20031;-62
2022/02/12 07:40:14;;;;;;;14.07;4.05;;;;;;;19.10;30.62;97349.44;5093630;28;20034;-63
2022/02/12 07:42:39;;;;;;;6.82;3.78;;;;;;;19.65;29.83;97359.41;5093423;28;20493;-64
2022/02/12 07:45:05;;;;;;;10.65;3.90;;;;;;;20.20;28.84;97364.88;5093377;28;20052;-63
2022/02/12 07:47:31;;;;;;;4.45;2.90;;;;;;;20.51;28.44;97359.38;5093257;28;20028;-63
2022/02/12 07:49:57;;;;;;;7.75;4.13;;;;;;;19.72;29.58;97358.09;5093377;28;20024;-63
2022/02/12 07:52:23;;;;;;;8.85;4.07;;;;;;;19.53;29.73;97358.38;5093353;28;20028;-63
2022/02/12 07:54:49;;;;;;;8.07;3.97;;;;;;;19.53;29.54;97363.69;5093364;28;20115;-61
2022/02/12 07:57:15;;;;;;;6.75;4.13;;;;;;;20.01;29.22;97363.41;5093267;28;20099;-63
2022/02/12 07:59:41;;;;;;;6.57;4.32;;;;;;;19.95;29.08;97361.09;5093126;28;20077;-62
2022/02/12 08:02:08;;;;;;;10.52;4.20;;;;;;;19.97;29.46;97367.16;5093083;28;20381;-63
2022/02/12 08:04:34;;;;;;;9.15;4.18;;;;;;;20.66;28.27;97362.81;5093171;28;20020;-64
2022/02/12 08:09:43;;;;;;;9.02;3.97;;;;;;;20.90;27.53;97370.16;5093555;28;20043;-63
2022/02/12 08:12:18;;;;;;;7.90;4.20;;;;;;;20.65;27.34;97366.44;5093114;28;20024;-64
2022/02/12 08:14:55;;;;;;;7.22;4.15;;;;;;;20.51;28.50;97370.88;5093132;28;20024;-64
2022/02/12 08:17:23;;;;;;;13.43;4.47;;;;;;;20.71;27.89;97366.88;5093086;28;20032;-64
2022/02/12 08:19:50;;;;;;;9.63;4.68;;;;;;;21.26;27.38;97371.28;5093097;28;20036;-64
2022/02/12 08:22:17;;;;;;;9.98;5.15;;;;;;;21.27;27.11;97364.13;5092964;28;20040;-62
2022/02/12 08:24:44;;;;;;;8.20;4.38;;;;;;;20.57;27.76;97365.16;5092934;28;20056;-64
2022/02/12 08:27:10;;;;;;;12.38;4.90;;;;;;;19.37;29.64;97377.03;5092963;28;20377;-64
2022/02/12 08:29:38;;;;;;;9.15;5.05;;;;;;;19.18;30.26;97367.56;5093198;28;20024;-64
2022/02/12 08:32:05;;;;;;;10.00;4.40;;;;;;;19.06;30.39;97372.59;5092989;28;20126;-62
2022/02/12 08:34:31;;;;;;;7.13;4.57;;;;;;;19.15;30.87;97381.00;5092816;28;20032;-62
2022/02/12 08:36:58;;;;;;;10.07;4.78;;;;;;;19.18;30.41;97386.94;5092843;28;20542;-63
2022/02/12 08:39:23;;;;;;;8.65;4.50;;;;;;;18.88;30.65;97389.59;5092729;28;20032;-63
2022/02/12 08:41:50;;;;;;;7.63;4.38;;;;;;;18.30;30.73;97393.69;5092849;28;20382;-63
2022/02/12 08:44:17;;;;;;;6.82;4.18;;;;;;;17.02;33.30;97381.00;5092692;28;20366;-63
2022/02/12 08:46:44;;;;;;;12.30;4.68;;;;;;;16.75;33.74;97381.44;5092729;28;20028;-62
2022/02/12 08:49:12;;;;;;;8.32;4.18;;;;;;;15.99;34.42;97385.94;5092739;28;20020;-62
2022/02/12 08:51:39;;;;;;;7.40;4.30;;;;;;;15.99;35.38;97396.50;5075074;28;20470;-61
2022/02/12 08:54:09;;;;;;;9.82;4.35;;;;;;;15.88;36.16;97400.44;5092566;28;20109;-63
2022/02/12 08:56:41;;;;;;;7.80;4.15;;;;;;;15.93;35.47;97394.97;5092795;28;20074;-62
2022/02/12 08:59:08;;;;;;;5.90;4.07;;;;;;;16.06;35.36;97397.03;5093031;28;20059;-64
2022/02/12 09:01:37;;;;;;;6.90;3.65;;;;;;;15.87;35.35;97404.00;5096336;28;20027;-62
2022/02/12 09:04:06;;;;;;;8.35;4.00;;;;;;;15.66;35.17;97409.31;5096180;28;20435;-63
2022/02/12 09:06:32;;;;;;;9.45;3.50;;;;;;;15.47;35.47;97411.09;5096570;28;20088;-62
2022/02/12 09:09:02;;;;;;;7.15;3.83;;;;;;;15.06;36.59;97402.28;5096428;28;20075;-62
2022/02/12 09:11:29;;;;;;;10.10;3.67;;;;;;;14.87;36.17;97386.38;5096274;28;20055;-62
2022/02/12 09:13:56;;;;;;;5.53;3.65;;;;;;;14.54;36.90;97408.72;5096187;28;20138;-63
2022/02/12 09:16:24;;;;;;;6.10;3.22;;;;;;;14.53;36.84;97412.28;5096238;28;20107;-62
2022/02/12 09:18:53;;;;;;;9.50;4.57;;;;;;;14.48;37.46;97420.34;5095850;28;20044;-62
2022/02/12 09:21:23;;;;;;;11.05;3.85;;;;;;;14.63;37.31;97413.63;5096362;28;20473;-62
2022/02/12 09:23:50;;;;;;;6.13;3.40;;;;;;;14.77;37.44;97425.38;5096163;28;20036;-62
2022/02/12 09:26:19;;;;;;;8.13;3.47;;;;;;;14.77;36.47;97425.38;5096010;28;20032;-63
2022/02/12 09:28:44;;;;;;;7.07;3.67;;;;;;;14.74;36.98;97423.72;5095884;28;20103;-62
2022/02/12 09:31:10;;;;;;;6.05;2.90;;;;;;;15.00;36.80;97415.69;5096029;28;20063;-62
2022/02/12 09:33:36;;;;;;;7.93;4.35;;;;;;;15.09;36.33;97422.34;5095828;28;20099;-63
2022/02/12 09:36:04;;;;;;;5.97;3.50;;;;;;;15.28;36.37;97432.97;5095905;28;20024;-62
2022/02/12 09:38:30;;;;;;;8.02;3.20;;;;;;;15.18;36.04;97426.38;5095722;28;20016;-63
2022/02/12 09:40:56;;;;;;;4.72;2.97;;;;;;;15.06;37.05;97425.13;5095656;28;20017;-63
2022/02/12 09:43:24;;;;;;;6.75;3.40;;;;;;;14.96;35.76;97422.03;5095574;28;20405;-63
2022/02/12 09:45:59;;;;;;;7.78;2.97;;;;;;;15.03;37.00;97420.84;5095615;28;20028;-62
2022/02/12 09:48:27;;;;;;;4.20;2.65;;;;;;;15.09;35.27;97424.97;5095702;28;20081;-63
2022/02/12 09:50:53;;;;;;;7.88;2.58;;;;;;;15.06;35.69;97428.63;5095529;28;20028;-63
2022/02/12 09:53:19;;;;;;;5.57;2.80;;;;;;;14.95;35.70;97425.56;5095467;28;20016;-63
2022/02/12 09:55:45;;;;;;;7.10;2.45;;;;;;;15.06;35.72;97410.19;5095376;28;20077;-62
2022/02/12 09:58:14;;;;;;;6.00;3.03;;;;;;;15.15;35.04;97425.56;5095432;28;20432;-63
2022/02/12 10:00:40;;;;;;;5.90;2.58;;;;;;;15.17;35.05;97428.13;5095374;28;20020;-63
2022/02/12 10:03:06;;;;;;;4.82;2.38;;;;;;;15.22;34.86;97425.31;5095218;28;20078;-63
2022/02/12 10:05:32;;;;;;;9.13;2.92;;;;;;;15.13;34.22;97416.88;5095223;28;20020;-63
2022/02/12 10:08:01;;;;;;;4.43;2.80;;;;;;;15.12;34.07;97412.56;5095176;28;20024;-63
2022/02/12 10:10:29;;;;;;;2.45;1.92;;;;;;;15.22;34.78;97415.63;5094653;28;20032;-63
2022/02/12 10:13:19;;;;;;;3.58;2.42;;;;;;;15.13;35.05;97408.97;5094531;28;20016;-63
2022/02/12 10:15:52;;;;;;;8.18;2.90;;;;;;;15.09;34.23;97407.41;5095181;28;20436;-63
2022/02/12 10:18:20;;;;;;;4.20;2.10;;;;;;;15.20;33.94;97400.81;5094901;28;20040;-63
2022/02/12 10:20:47;;;;;;;3.85;2.20;;;;;;;15.32;34.03;97402.91;5095087;28;20050;-63
2022/02/12 10:23:21;;;;;;;5.60;2.40;;;;;;;15.39;33.88;97401.72;5094639;28;20466;-63
2022/02/12 10:25:50;;;;;;;4.00;2.20;;;;;;;15.45;33.05;97399.75;5094867;28;20359;-63
2022/02/12 10:28:17;;;;;;;4.72;2.10;;;;;;;15.41;33.02;97391.97;5094922;28;20031;-63
2022/02/12 10:30:45;;;;;;;4.30;1.80;;;;;;;15.25;33.43;97396.19;5094627;28;20377;-63
2022/02/12 10:33:11;;;;;;;5.85;2.25;;;;;;;15.10;33.41;97392.44;5094789;28;20104;-63
2022/02/12 10:35:38;;;;;;;3.20;1.90;;;;;;;15.07;33.31;97397.84;5094730;28;20095;-62
2022/02/12 10:38:16;;;;;;;2.97;1.60;;;;;;;14.99;33.14;97403.44;5094306;28;20050;-62
2022/02/12 10:40:42;;;;;;;4.82;1.67;;;;;;;15.02;33.61;97390.16;5094602;28;20043;-62
2022/02/12 10:43:08;;;;;;;3.15;1.83;;;;;;;15.00;33.02;97392.84;5094262;28;20027;-63
2022/02/12 10:45:34;;;;;;;2.25;1.70;;;;;;;15.01;34.43;97393.69;5094475;28;20102;-62
2022/02/12 10:48:02;;;;;;;2.53;1.88;;;;;;;15.10;32.92;97395.06;5094310;28;20373;-63
2022/02/12 10:50:30;;;;;;;3.83;1.98;;;;;;;15.09;33.70;97399.50;5092737;28;20060;-58
2022/02/12 10:52:59;;;;;;;3.28;2.00;;;;;;;15.01;32.64;97399.81;5094505;28;20099;-56
2022/02/12 10:55:41;;;;;;;4.82;1.80;;;;;;;14.82;32.52;97389.22;5093359;28;20060;-56
2022/02/12 10:58:12;;;;;;;3.83;1.95;;;;;;;14.73;33.27;97389.56;5093798;28;20077;-55
2022/02/12 11:00:40;;;;;;;2.92;1.65;;;;;;;14.73;33.73;97384.28;5094235;28;20020;-56
2022/02/12 11:03:12;;;;;;;3.70;2.20;;;;;;;14.77;33.45;97388.50;5093966;28;20028;-55
2022/02/12 11:05:42;;;;;;;4.82;1.95;;;;;;;14.82;33.04;97386.56;5094016;28;20032;-55
2022/02/12 11:08:09;;;;;;;30.60;22.92;;;;;;;15.00;33.68;97392.84;5073875;28;20032;-56
2022/02/12 11:10:37;;;;;;;3.13;2.22;;;;;;;14.98;32.16;97391.19;5073743;28;20033;-56
2022/02/12 11:13:04;;;;;;;3.00;1.75;;;;;;;14.81;31.88;97398.00;5073733;28;20380;-56
2022/02/12 11:15:31;;;;;;;4.65;2.05;;;;;;;14.69;32.58;97388.81;5086146;28;20027;-56
2022/02/12 11:18:03;;;;;;;5.88;4.55;;;;;;;14.61;33.52;97394.41;5093538;28;20166;-56
2022/02/12 11:20:29;;;;;;;8.27;2.97;;;;;;;14.70;32.45;97395.81;5093991;28;20119;-55
2022/02/12 11:23:24;;;;;;;2.83;1.80;;;;;;;14.69;33.36;97395.88;5092712;28;20023;-56
2022/02/12 11:25:54;;;;;;;3.42;1.77;;;;;;;14.74;33.03;97391.25;5090576;28;20055;-56
2022/02/12 11:28:32;;;;;;;6.00;2.88;;;;;;;14.83;33.60;97387.41;5093545;28;20028;-56
2022/02/12 11:31:18;;;;;;;22.42;14.85;;;;;;;14.96;33.43;97391.25;5093379;28;20114;-56
2022/02/12 11:34:06;;;;;;;5.82;1.90;;;;;;;14.71;33.10;97394.88;5093531;28;20070;-56
2022/02/12 11:36:33;;;;;;;2.95;1.85;;;;;;;14.71;32.40;97399.28;5093451;28;20043;-56
2022/02/12 11:39:11;;;;;;;138.48;95.68;;;;;;;14.68;33.58;97399.41;5093524;28;20028;-56